sensor_id;sensor_type;location;lat;lon;timestamp;pressure;altitude;pressure_sealevel;temperature;humidity
44765;BME280;30484;52.382;5.260;2023-03-23T00:01:41;100184.69;;;15.39;100.00
44765;BME280;30484;52.382;5.260;2023-03-23T00:04:09;100196.41;;;15.49;100.00
44765;BME280;30484;52.382;5.260;2023-03-23T00:06:40;100187.63;;;15.35;100.00
44765;BME280;30484;52.382;5.260;2023-03-23T00:09:14;100195.00;;;14.99;100.00
44765;BME280;30484;52.382;5.260;2023-03-23T00:11:44;100179.19;;;15.40;100.00
44765;BME280;30484;52.382;5.260;2023-03-23T00:14:12;100179.19;;;15.40;100.00
44765;BME280;30484;52.382;5.260;2023-03-23T00:16:42;100189.00;;;15.30;100.00
44765;BME280;30484;52.382;5.260;2023-03-23T00:19:13;100185.19;;;15.44;100.00
44765;BME280;30484;52.382;5.260;2023-03-23T00:21:43;100178.34;;;15.40;100.00
44765;BME280;30484;52.382;5.260;2023-03-23T00:24:15;100184.56;;;15.40;100.00
44765;BME280;30484;52.382;5.260;2023-03-23T00:26:56;100174.81;;;15.28;100.00
44765;BME280;30484;52.382;5.260;2023-03-23T00:29:26;100155.56;;;15.44;100.00
44765;BME280;30484;52.382;5.260;2023-03-23T00:31:55;100168.16;;;15.98;100.00
44765;BME280;30484;52.382;5.260;2023-03-23T00:34:23;100182.28;;;15.13;100.00
44765;BME280;30484;52.382;5.260;2023-03-23T00:36:58;100177.81;;;15.57;100.00
44765;BME280;30484;52.382;5.260;2023-03-23T00:39:27;100173.25;;;15.80;100.00
44765;BME280;30484;52.382;5.260;2023-03-23T00:41:56;100168.97;;;15.78;100.00
44765;BME280;30484;52.382;5.260;2023-03-23T00:44:28;100165.84;;;15.39;100.00
44765;BME280;30484;52.382;5.260;2023-03-23T00:47:01;100162.78;;;15.43;100.00
44765;BME280;30484;52.382;5.260;2023-03-23T00:49:29;100154.50;;;15.35;100.00
44765;BME280;30484;52.382;5.260;2023-03-23T00:52:03;100158.84;;;15.47;100.00
44765;BME280;30484;52.382;5.260;2023-03-23T00:54:33;100148.50;;;15.31;100.00
44765;BME280;30484;52.382;5.260;2023-03-23T00:57:05;100157.75;;;15.50;100.00
44765;BME280;30484;52.382;5.260;2023-03-23T00:59:34;100143.50;;;15.82;100.00
44765;BME280;30484;52.382;5.260;2023-03-23T01:02:06;100138.16;;;15.59;100.00
44765;BME280;30484;52.382;5.260;2023-03-23T01:04:34;100141.84;;;16.02;100.00
44765;BME280;30484;52.382;5.260;2023-03-23T01:07:03;100137.28;;;16.02;100.00
44765;BME280;30484;52.382;5.260;2023-03-23T01:09:34;100133.53;;;15.94;100.00
44765;BME280;30484;52.382;5.260;2023-03-23T01:12:02;100136.69;;;15.66;100.00
44765;BME280;30484;52.382;5.260;2023-03-23T01:14:30;100124.53;;;15.72;100.00
44765;BME280;30484;52.382;5.260;2023-03-23T01:16:58;100128.41;;;15.91;100.00
44765;BME280;30484;52.382;5.260;2023-03-23T01:19:28;100131.47;;;15.42;100.00
44765;BME280;30484;52.382;5.260;2023-03-23T01:21:57;100127.06;;;15.41;100.00
44765;BME280;30484;52.382;5.260;2023-03-23T01:24:28;100131.94;;;15.47;100.00
44765;BME280;30484;52.382;5.260;2023-03-23T01:26:55;100129.03;;;15.83;100.00
44765;BME280;30484;52.382;5.260;2023-03-23T01:29:24;100113.63;;;16.06;100.00
44765;BME280;30484;52.382;5.260;2023-03-23T01:31:53;100105.28;;;15.77;100.00
44765;BME280;30484;52.382;5.260;2023-03-23T01:34:23;100092.63;;;15.56;100.00
44765;BME280;30484;52.382;5.260;2023-03-23T01:36:53;100113.38;;;15.77;100.00
44765;BME280;30484;52.382;5.260;2023-03-23T01:39:22;100098.72;;;15.26;100.00
44765;BME280;30484;52.382;5.260;2023-03-23T01:41:51;100095.22;;;15.14;100.00
44765;BME280;30484;52.382;5.260;2023-03-23T01:47:57;100089.22;;;15.54;100.00
44765;BME280;30484;52.382;5.260;2023-03-23T01:50:28;100082.97;;;15.65;100.00
44765;BME280;30484;52.382;5.260;2023-03-23T01:53:05;100095.09;;;15.59;100.00
44765;BME280;30484;52.382;5.260;2023-03-23T01:55:36;100096.59;;;15.84;100.00
44765;BME280;30484;52.382;5.260;2023-03-23T01:58:07;100092.72;;;15.66;100.00
44765;BME280;30484;52.382;5.260;2023-03-23T02:00:39;100085.38;;;15.68;100.00
44765;BME280;30484;52.382;5.260;2023-03-23T02:03:09;100082.00;;;15.87;100.00
44765;BME280;30484;52.382;5.260;2023-03-23T02:05:41;100071.22;;;15.54;100.00
44765;BME280;30484;52.382;5.260;2023-03-23T02:08:15;100079.09;;;15.79;100.00
44765;BME280;30484;52.382;5.260;2023-03-23T02:10:44;100084.06;;;15.62;100.00
44765;BME280;30484;52.382;5.260;2023-03-23T02:13:13;100081.88;;;15.24;100.00
44765;BME280;30484;52.382;5.260;2023-03-23T02:15:53;100070.81;;;15.70;100.00
44765;BME280;30484;52.382;5.260;2023-03-23T02:18:45;100080.09;;;15.78;100.00
44765;BME280;30484;52.382;5.260;2023-03-23T02:21:52;100086.63;;;15.96;100.00
44765;BME280;30484;52.382;5.260;2023-03-23T02:25:10;100078.19;;;15.57;100.00
44765;BME280;30484;52.382;5.260;2023-03-23T02:31:18;100060.03;;;15.82;100.00
44765;BME280;30484;52.382;5.260;2023-03-23T02:33:56;100071.50;;;15.84;100.00
44765;BME280;30484;52.382;5.260;2023-03-23T02:36:32;100075.66;;;15.77;100.00
44765;BME280;30484;52.382;5.260;2023-03-23T02:39:14;100068.63;;;15.97;100.00
44765;BME280;30484;52.382;5.260;2023-03-23T02:41:51;100059.56;;;15.98;100.00
44765;BME280;30484;52.382;5.260;2023-03-23T02:44:22;100068.63;;;15.64;100.00
44765;BME280;30484;52.382;5.260;2023-03-23T02:46:54;100060.25;;;15.79;100.00
44765;BME280;30484;52.382;5.260;2023-03-23T02:49:28;100061.03;;;15.69;100.00
44765;BME280;30484;52.382;5.260;2023-03-23T02:51:59;100075.28;;;15.49;100.00
44765;BME280;30484;52.382;5.260;2023-03-23T02:54:31;100056.94;;;15.75;100.00
44765;BME280;30484;52.382;5.260;2023-03-23T02:57:02;100063.94;;;15.99;100.00
44765;BME280;30484;52.382;5.260;2023-03-23T02:59:30;100058.38;;;15.58;100.00
44765;BME280;30484;52.382;5.260;2023-03-23T03:02:07;100058.53;;;15.78;100.00
44765;BME280;30484;52.382;5.260;2023-03-23T03:04:40;100058.19;;;15.71;100.00
44765;BME280;30484;52.382;5.260;2023-03-23T03:07:48;100056.00;;;15.44;100.00
44765;BME280;30484;52.382;5.260;2023-03-23T03:10:31;100059.16;;;15.81;100.00
44765;BME280;30484;52.382;5.260;2023-03-23T03:13:10;100058.47;;;15.68;100.00
44765;BME280;30484;52.382;5.260;2023-03-23T03:15:47;100053.06;;;16.00;100.00
44765;BME280;30484;52.382;5.260;2023-03-23T03:18:21;100051.69;;;15.74;100.00
44765;BME280;30484;52.382;5.260;2023-03-23T03:20:57;100034.09;;;15.37;100.00
44765;BME280;30484;52.382;5.260;2023-03-23T03:23:28;100054.00;;;15.46;100.00
44765;BME280;30484;52.382;5.260;2023-03-23T03:25:57;100046.56;;;15.82;100.00
44765;BME280;30484;52.382;5.260;2023-03-23T03:28:26;100057.22;;;15.72;100.00
44765;BME280;30484;52.382;5.260;2023-03-23T03:30:57;100053.16;;;15.45;100.00
44765;BME280;30484;52.382;5.260;2023-03-23T03:33:29;100047.81;;;15.66;100.00
44765;BME280;30484;52.382;5.260;2023-03-23T03:36:04;100042.38;;;15.78;100.00
44765;BME280;30484;52.382;5.260;2023-03-23T03:38:42;100030.84;;;15.54;100.00
44765;BME280;30484;52.382;5.260;2023-03-23T03:41:11;100037.84;;;15.46;100.00
44765;BME280;30484;52.382;5.260;2023-03-23T03:43:41;100037.53;;;15.39;100.00
44765;BME280;30484;52.382;5.260;2023-03-23T03:46:09;100031.31;;;15.27;100.00
44765;BME280;30484;52.382;5.260;2023-03-23T03:48:37;100038.22;;;15.52;100.00
44765;BME280;30484;52.382;5.260;2023-03-23T03:51:27;100037.09;;;15.55;100.00
44765;BME280;30484;52.382;5.260;2023-03-23T03:54:02;100047.69;;;15.35;100.00
44765;BME280;30484;52.382;5.260;2023-03-23T03:56:34;100077.03;;;15.39;100.00
44765;BME280;30484;52.382;5.260;2023-03-23T03:59:07;100074.56;;;15.47;100.00
44765;BME280;30484;52.382;5.260;2023-03-23T04:01:37;100090.94;;;15.11;100.00
44765;BME280;30484;52.382;5.260;2023-03-23T04:04:07;100107.16;;;15.32;100.00
44765;BME280;30484;52.382;5.260;2023-03-23T04:06:37;100085.19;;;14.93;100.00
44765;BME280;30484;52.382;5.260;2023-03-23T04:09:05;100073.84;;;15.01;100.00
44765;BME280;30484;52.382;5.260;2023-03-23T04:11:35;100091.19;;;14.97;100.00
44765;BME280;30484;52.382;5.260;2023-03-23T04:14:11;100090.81;;;15.13;100.00
44765;BME280;30484;52.382;5.260;2023-03-23T04:16:42;100093.84;;;15.19;100.00
44765;BME280;30484;52.382;5.260;2023-03-23T04:19:09;100072.94;;;15.12;100.00
44765;BME280;30484;52.382;5.260;2023-03-23T04:21:40;100094.09;;;15.28;100.00
44765;BME280;30484;52.382;5.260;2023-03-23T04:24:08;100092.56;;;14.80;100.00
44765;BME280;30484;52.382;5.260;2023-03-23T04:26:39;100090.81;;;14.90;100.00
44765;BME280;30484;52.382;5.260;2023-03-23T04:29:09;100098.88;;;15.01;100.00
44765;BME280;30484;52.382;5.260;2023-03-23T04:31:39;100099.38;;;15.18;100.00
44765;BME280;30484;52.382;5.260;2023-03-23T04:34:13;100102.69;;;14.88;100.00
44765;BME280;30484;52.382;5.260;2023-03-23T04:36:42;100101.34;;;14.93;100.00
44765;BME280;30484;52.382;5.260;2023-03-23T04:39:13;100116.25;;;14.75;100.00
44765;BME280;30484;52.382;5.260;2023-03-23T04:41:42;100119.19;;;14.83;100.00
44765;BME280;30484;52.382;5.260;2023-03-23T04:44:13;100114.16;;;15.12;100.00
44765;BME280;30484;52.382;5.260;2023-03-23T04:46:45;100120.28;;;15.03;100.00
44765;BME280;30484;52.382;5.260;2023-03-23T04:49:17;100122.38;;;14.65;100.00
44765;BME280;30484;52.382;5.260;2023-03-23T04:51:49;100131.53;;;14.74;100.00
44765;BME280;30484;52.382;5.260;2023-03-23T04:54:18;100132.25;;;14.76;100.00
44765;BME280;30484;52.382;5.260;2023-03-23T04:56:47;100123.56;;;14.61;100.00
44765;BME280;30484;52.382;5.260;2023-03-23T04:59:16;100142.16;;;14.64;100.00
44765;BME280;30484;52.382;5.260;2023-03-23T05:01:44;100147.88;;;14.60;100.00
44765;BME280;30484;52.382;5.260;2023-03-23T05:04:17;100144.69;;;14.55;100.00
44765;BME280;30484;52.382;5.260;2023-03-23T05:07:07;100159.22;;;14.52;100.00
44765;BME280;30484;52.382;5.260;2023-03-23T05:09:50;100145.47;;;14.68;100.00
44765;BME280;30484;52.382;5.260;2023-03-23T05:12:19;100137.63;;;14.76;100.00
44765;BME280;30484;52.382;5.260;2023-03-23T05:14:51;100150.50;;;15.07;100.00
44765;BME280;30484;52.382;5.260;2023-03-23T05:17:21;100141.44;;;14.74;100.00
44765;BME280;30484;52.382;5.260;2023-03-23T05:19:52;100145.59;;;14.66;100.00
44765;BME280;30484;52.382;5.260;2023-03-23T05:22:27;100148.50;;;14.75;100.00
44765;BME280;30484;52.382;5.260;2023-03-23T05:24:58;100148.28;;;14.66;100.00
44765;BME280;30484;52.382;5.260;2023-03-23T05:27:29;100142.06;;;14.89;100.00
44765;BME280;30484;52.382;5.260;2023-03-23T05:30:02;100150.34;;;14.74;100.00
44765;BME280;30484;52.382;5.260;2023-03-23T05:32:46;100157.56;;;14.62;100.00
44765;BME280;30484;52.382;5.260;2023-03-23T05:35:29;100154.91;;;14.96;100.00
44765;BME280;30484;52.382;5.260;2023-03-23T05:38:02;100150.25;;;14.87;100.00
44765;BME280;30484;52.382;5.260;2023-03-23T05:41:00;100142.19;;;14.98;100.00
44765;BME280;30484;52.382;5.260;2023-03-23T05:43:27;100143.88;;;15.11;100.00
44765;BME280;30484;52.382;5.260;2023-03-23T05:45:55;100155.34;;;14.67;100.00
44765;BME280;30484;52.382;5.260;2023-03-23T05:48:22;100152.69;;;14.79;100.00
44765;BME280;30484;52.382;5.260;2023-03-23T05:50:49;100147.94;;;14.94;100.00
44765;BME280;30484;52.382;5.260;2023-03-23T05:53:17;100155.75;;;14.86;100.00
44765;BME280;30484;52.382;5.260;2023-03-23T05:55:44;100162.72;;;14.88;100.00
44765;BME280;30484;52.382;5.260;2023-03-23T05:58:13;100170.03;;;14.86;100.00
44765;BME280;30484;52.382;5.260;2023-03-23T06:00:41;100163.56;;;14.89;100.00
44765;BME280;30484;52.382;5.260;2023-03-23T06:03:08;100172.47;;;15.12;100.00
44765;BME280;30484;52.382;5.260;2023-03-23T06:05:35;100166.88;;;15.04;100.00
44765;BME280;30484;52.382;5.260;2023-03-23T06:08:03;100166.38;;;15.21;100.00
44765;BME280;30484;52.382;5.260;2023-03-23T06:10:30;100176.38;;;15.08;100.00
44765;BME280;30484;52.382;5.260;2023-03-23T06:13:02;100177.00;;;15.23;100.00
44765;BME280;30484;52.382;5.260;2023-03-23T06:15:31;100172.84;;;15.18;100.00
44765;BME280;30484;52.382;5.260;2023-03-23T06:17:58;100185.19;;;14.76;100.00
44765;BME280;30484;52.382;5.260;2023-03-23T06:20:26;100193.53;;;15.18;100.00
44765;BME280;30484;52.382;5.260;2023-03-23T06:22:56;100197.59;;;14.54;100.00
44765;BME280;30484;52.382;5.260;2023-03-23T06:25:25;100191.69;;;15.18;100.00
44765;BME280;30484;52.382;5.260;2023-03-23T06:27:52;100207.09;;;15.16;100.00
44765;BME280;30484;52.382;5.260;2023-03-23T06:30:21;100202.19;;;14.99;100.00
44765;BME280;30484;52.382;5.260;2023-03-23T06:32:51;100207.09;;;14.94;100.00
44765;BME280;30484;52.382;5.260;2023-03-23T06:35:19;100197.41;;;14.80;100.00
44765;BME280;30484;52.382;5.260;2023-03-23T06:37:47;100207.09;;;15.28;100.00
44765;BME280;30484;52.382;5.260;2023-03-23T06:40:15;100213.56;;;15.02;100.00
44765;BME280;30484;52.382;5.260;2023-03-23T06:42:44;100223.22;;;14.82;100.00
44765;BME280;30484;52.382;5.260;2023-03-23T06:45:11;100216.28;;;15.14;100.00
44765;BME280;30484;52.382;5.260;2023-03-23T06:47:39;100208.91;;;15.16;100.00
44765;BME280;30484;52.382;5.260;2023-03-23T06:50:09;100216.28;;;15.25;100.00
44765;BME280;30484;52.382;5.260;2023-03-23T06:52:37;100210.63;;;14.83;100.00
44765;BME280;30484;52.382;5.260;2023-03-23T06:55:05;100217.88;;;15.05;100.00
44765;BME280;30484;52.382;5.260;2023-03-23T06:57:33;100212.38;;;15.07;100.00
44765;BME280;30484;52.382;5.260;2023-03-23T07:00:01;100212.84;;;15.12;100.00
44765;BME280;30484;52.382;5.260;2023-03-23T07:02:33;100221.91;;;15.33;100.00
44765;BME280;30484;52.382;5.260;2023-03-23T07:05:01;100211.38;;;15.08;100.00
44765;BME280;30484;52.382;5.260;2023-03-23T07:07:32;100217.50;;;15.21;100.00
44765;BME280;30484;52.382;5.260;2023-03-23T07:10:01;100215.91;;;15.18;100.00
44765;BME280;30484;52.382;5.260;2023-03-23T07:12:29;100231.13;;;15.63;100.00
44765;BME280;30484;52.382;5.260;2023-03-23T07:14:56;100217.75;;;15.29;100.00
44765;BME280;30484;52.382;5.260;2023-03-23T07:17:23;100227.03;;;15.25;100.00
44765;BME280;30484;52.382;5.260;2023-03-23T07:19:50;100222.13;;;15.08;100.00
44765;BME280;30484;52.382;5.260;2023-03-23T07:22:17;100216.13;;;15.49;100.00
44765;BME280;30484;52.382;5.260;2023-03-23T07:24:46;100219.69;;;15.39;100.00
44765;BME280;30484;52.382;5.260;2023-03-23T07:27:13;100220.28;;;15.65;100.00
44765;BME280;30484;52.382;5.260;2023-03-23T07:29:41;100218.97;;;15.25;100.00
44765;BME280;30484;52.382;5.260;2023-03-23T07:32:11;100231.91;;;15.20;100.00
44765;BME280;30484;52.382;5.260;2023-03-23T07:34:39;100241.31;;;15.03;100.00
44765;BME280;30484;52.382;5.260;2023-03-23T07:37:07;100238.41;;;15.29;100.00
44765;BME280;30484;52.382;5.260;2023-03-23T07:39:34;100230.44;;;15.27;100.00
44765;BME280;30484;52.382;5.260;2023-03-23T07:42:04;100243.50;;;15.54;100.00
44765;BME280;30484;52.382;5.260;2023-03-23T07:44:33;100253.19;;;15.34;100.00
44765;BME280;30484;52.382;5.260;2023-03-23T07:47:00;100247.81;;;15.57;100.00
44765;BME280;30484;52.382;5.260;2023-03-23T07:49:28;100250.75;;;15.31;100.00
44765;BME280;30484;52.382;5.260;2023-03-23T07:51:56;100279.03;;;15.48;100.00
44765;BME280;30484;52.382;5.260;2023-03-23T07:54:23;100254.66;;;15.27;100.00
44765;BME280;30484;52.382;5.260;2023-03-23T07:56:51;100262.25;;;15.45;100.00
44765;BME280;30484;52.382;5.260;2023-03-23T07:59:19;100268.38;;;15.35;100.00
44765;BME280;30484;52.382;5.260;2023-03-23T08:01:47;100260.53;;;15.66;100.00
44765;BME280;30484;52.382;5.260;2023-03-23T08:04:14;100255.03;;;15.23;100.00
44765;BME280;30484;52.382;5.260;2023-03-23T08:06:42;100259.91;;;15.63;100.00
44765;BME280;30484;52.382;5.260;2023-03-23T08:09:09;100251.72;;;15.64;100.00
44765;BME280;30484;52.382;5.260;2023-03-23T08:11:39;100259.53;;;15.56;100.00
44765;BME280;30484;52.382;5.260;2023-03-23T08:14:06;100256.25;;;15.52;100.00
44765;BME280;30484;52.382;5.260;2023-03-23T08:16:35;100252.91;;;15.71;100.00
44765;BME280;30484;52.382;5.260;2023-03-23T08:19:02;100266.66;;;15.80;100.00
44765;BME280;30484;52.382;5.260;2023-03-23T08:21:31;100256.94;;;16.00;100.00
44765;BME280;30484;52.382;5.260;2023-03-23T08:23:59;100266.50;;;15.93;100.00
44765;BME280;30484;52.382;5.260;2023-03-23T08:26:27;100266.09;;;16.09;100.00
44765;BME280;30484;52.382;5.260;2023-03-23T08:28:54;100273.06;;;16.11;100.00
44765;BME280;30484;52.382;5.260;2023-03-23T08:31:21;100270.91;;;16.37;100.00
44765;BME280;30484;52.382;5.260;2023-03-23T08:33:50;100285.22;;;15.94;100.00
44765;BME280;30484;52.382;5.260;2023-03-23T08:36:18;100274.41;;;16.17;100.00
44765;BME280;30484;52.382;5.260;2023-03-23T08:38:45;100269.84;;;16.17;100.00
44765;BME280;30484;52.382;5.260;2023-03-23T08:41:13;100284.66;;;16.23;100.00
44765;BME280;30484;52.382;5.260;2023-03-23T08:43:40;100282.56;;;15.83;100.00
44765;BME280;30484;52.382;5.260;2023-03-23T08:46:07;100285.81;;;16.42;100.00
44765;BME280;30484;52.382;5.260;2023-03-23T08:48:36;100275.78;;;16.44;100.00
44765;BME280;30484;52.382;5.260;2023-03-23T08:51:06;100279.66;;;16.51;100.00
44765;BME280;30484;52.382;5.260;2023-03-23T08:53:34;100286.91;;;16.71;100.00
44765;BME280;30484;52.382;5.260;2023-03-23T08:56:04;100293.19;;;16.39;100.00
44765;BME280;30484;52.382;5.260;2023-03-23T08:58:32;100288.09;;;16.79;100.00
44765;BME280;30484;52.382;5.260;2023-03-23T09:01:00;100298.84;;;16.90;100.00
44765;BME280;30484;52.382;5.260;2023-03-23T09:03:28;100297.31;;;17.39;100.00
44765;BME280;30484;52.382;5.260;2023-03-23T09:05:59;100296.97;;;17.33;100.00
44765;BME280;30484;52.382;5.260;2023-03-23T09:08:29;100293.06;;;17.47;100.00
44765;BME280;30484;52.382;5.260;2023-03-23T09:10:58;100295.53;;;16.65;100.00
44765;BME280;30484;52.382;5.260;2023-03-23T09:13:26;100289.41;;;16.84;100.00
44765;BME280;30484;52.382;5.260;2023-03-23T09:15:53;100295.44;;;17.09;100.00
44765;BME280;30484;52.382;5.260;2023-03-23T09:18:21;100298.06;;;17.20;100.00
44765;BME280;30484;52.382;5.260;2023-03-23T09:20:50;100310.66;;;17.72;100.00
44765;BME280;30484;52.382;5.260;2023-03-23T09:23:18;100293.91;;;17.37;100.00
44765;BME280;30484;52.382;5.260;2023-03-23T09:25:47;100290.78;;;17.73;100.00
44765;BME280;30484;52.382;5.260;2023-03-23T09:28:14;100284.72;;;17.59;100.00
44765;BME280;30484;52.382;5.260;2023-03-23T09:30:42;100287.28;;;17.61;100.00
44765;BME280;30484;52.382;5.260;2023-03-23T09:33:10;100292.91;;;17.79;100.00
44765;BME280;30484;52.382;5.260;2023-03-23T09:35:38;100290.25;;;17.89;100.00
44765;BME280;30484;52.382;5.260;2023-03-23T09:38:09;100284.91;;;18.28;100.00
44765;BME280;30484;52.382;5.260;2023-03-23T09:40:47;100295.16;;;18.15;100.00
44765;BME280;30484;52.382;5.260;2023-03-23T09:43:43;100300.72;;;18.42;100.00
44765;BME280;30484;52.382;5.260;2023-03-23T09:46:34;100300.44;;;18.65;100.00
44765;BME280;30484;52.382;5.260;2023-03-23T09:49:11;100288.09;;;18.53;100.00
44765;BME280;30484;52.382;5.260;2023-03-23T09:51:44;100306.28;;;18.70;100.00
44765;BME280;30484;52.382;5.260;2023-03-23T09:54:20;100298.59;;;19.05;100.00
44765;BME280;30484;52.382;5.260;2023-03-23T09:56:50;100310.72;;;18.71;100.00
44765;BME280;30484;52.382;5.260;2023-03-23T09:59:24;100310.56;;;18.83;100.00
44765;BME280;30484;52.382;5.260;2023-03-23T10:01:59;100314.69;;;18.87;100.00
44765;BME280;30484;52.382;5.260;2023-03-23T10:04:36;100320.25;;;18.95;100.00
44765;BME280;30484;52.382;5.260;2023-03-23T10:07:12;100325.06;;;19.11;100.00
44765;BME280;30484;52.382;5.260;2023-03-23T10:09:40;100325.06;;;19.11;100.00
44765;BME280;30484;52.382;5.260;2023-03-23T10:12:21;100318.94;;;19.56;100.00
44765;BME280;30484;52.382;5.260;2023-03-23T10:15:14;100318.56;;;19.51;100.00
44765;BME280;30484;52.382;5.260;2023-03-23T10:17:50;100327.94;;;19.94;100.00
44765;BME280;30484;52.382;5.260;2023-03-23T10:20:32;100329.16;;;19.72;100.00
44765;BME280;30484;52.382;5.260;2023-03-23T10:23:12;100329.81;;;19.94;100.00
44765;BME280;30484;52.382;5.260;2023-03-23T10:25:46;100318.72;;;19.77;100.00
44765;BME280;30484;52.382;5.260;2023-03-23T10:28:20;100322.88;;;19.81;100.00
44765;BME280;30484;52.382;5.260;2023-03-23T10:30:53;100327.50;;;19.99;100.00
44765;BME280;30484;52.382;5.260;2023-03-23T10:33:25;100340.81;;;20.56;100.00
44765;BME280;30484;52.382;5.260;2023-03-23T10:35:59;100330.13;;;20.37;100.00
44765;BME280;30484;52.382;5.260;2023-03-23T10:38:34;100325.41;;;20.11;100.00
44765;BME280;30484;52.382;5.260;2023-03-23T10:41:05;100334.22;;;20.23;100.00
44765;BME280;30484;52.382;5.260;2023-03-23T10:43:38;100338.97;;;20.11;100.00
44765;BME280;30484;52.382;5.260;2023-03-23T10:46:19;100337.72;;;19.67;100.00
44765;BME280;30484;52.382;5.260;2023-03-23T10:48:50;100343.06;;;19.97;100.00
44765;BME280;30484;52.382;5.260;2023-03-23T10:51:23;100344.88;;;19.69;100.00
44765;BME280;30484;52.382;5.260;2023-03-23T10:53:58;100341.66;;;19.93;100.00
44765;BME280;30484;52.382;5.260;2023-03-23T10:56:29;100337.72;;;20.33;100.00
44765;BME280;30484;52.382;5.260;2023-03-23T10:59:14;100354.06;;;20.41;100.00
44765;BME280;30484;52.382;5.260;2023-03-23T11:01:44;100352.72;;;20.27;100.00
44765;BME280;30484;52.382;5.260;2023-03-23T11:04:15;100347.25;;;20.09;100.00
44765;BME280;30484;52.382;5.260;2023-03-23T11:06:46;100350.16;;;19.98;100.00
44765;BME280;30484;52.382;5.260;2023-03-23T11:09:19;100354.59;;;19.99;100.00
44765;BME280;30484;52.382;5.260;2023-03-23T11:11:52;100351.41;;;19.38;100.00
44765;BME280;30484;52.382;5.260;2023-03-23T11:14:26;100349.69;;;19.75;100.00
44765;BME280;30484;52.382;5.260;2023-03-23T11:16:56;100352.28;;;19.66;100.00
44765;BME280;30484;52.382;5.260;2023-03-23T11:19:27;100357.88;;;20.03;100.00
44765;BME280;30484;52.382;5.260;2023-03-23T11:22:07;100351.25;;;19.87;100.00
44765;BME280;30484;52.382;5.260;2023-03-23T11:24:37;100353.34;;;20.21;100.00
44765;BME280;30484;52.382;5.260;2023-03-23T11:27:08;100351.78;;;20.18;100.00
44765;BME280;30484;52.382;5.260;2023-03-23T11:29:47;100350.06;;;20.17;100.00
44765;BME280;30484;52.382;5.260;2023-03-23T11:32:28;100364.38;;;19.72;100.00
44765;BME280;30484;52.382;5.260;2023-03-23T11:34:59;100363.84;;;19.69;100.00
44765;BME280;30484;52.382;5.260;2023-03-23T11:37:34;100366.16;;;20.01;100.00
44765;BME280;30484;52.382;5.260;2023-03-23T11:40:16;100366.03;;;20.48;100.00
44765;BME280;30484;52.382;5.260;2023-03-23T11:42:46;100355.59;;;20.90;100.00
44765;BME280;30484;52.382;5.260;2023-03-23T11:45:19;100354.81;;;20.15;100.00
44765;BME280;30484;52.382;5.260;2023-03-23T11:48:11;100356.31;;;20.00;100.00
44765;BME280;30484;52.382;5.260;2023-03-23T11:50:50;100357.44;;;19.70;100.00
44765;BME280;30484;52.382;5.260;2023-03-23T11:53:33;100354.22;;;19.94;100.00
44765;BME280;30484;52.382;5.260;2023-03-23T11:56:13;100349.19;;;20.27;100.00
44765;BME280;30484;52.382;5.260;2023-03-23T11:58:43;100359.59;;;20.49;100.00
44765;BME280;30484;52.382;5.260;2023-03-23T12:01:23;100358.81;;;20.11;100.00
44765;BME280;30484;52.382;5.260;2023-03-23T12:04:16;100356.66;;;19.77;100.00
44765;BME280;30484;52.382;5.260;2023-03-23T12:06:54;100352.69;;;20.09;100.00
44765;BME280;30484;52.382;5.260;2023-03-23T12:09:40;100357.00;;;19.64;100.00
44765;BME280;30484;52.382;5.260;2023-03-23T12:12:18;100357.50;;;19.40;100.00
44765;BME280;30484;52.382;5.260;2023-03-23T12:14:56;100358.31;;;19.98;100.00
44765;BME280;30484;52.382;5.260;2023-03-23T12:17:41;100360.53;;;19.85;100.00
44765;BME280;30484;52.382;5.260;2023-03-23T12:20:22;100365.81;;;19.66;100.00
44765;BME280;30484;52.382;5.260;2023-03-23T12:23:14;100359.19;;;19.51;100.00
44765;BME280;30484;52.382;5.260;2023-03-23T12:26:14;100360.09;;;19.79;100.00
44765;BME280;30484;52.382;5.260;2023-03-23T12:28:56;100354.91;;;19.96;100.00
44765;BME280;30484;52.382;5.260;2023-03-23T12:31:31;100348.69;;;19.38;100.00
44765;BME280;30484;52.382;5.260;2023-03-23T12:34:20;100345.84;;;19.40;100.00
44765;BME280;30484;52.382;5.260;2023-03-23T12:37:06;100343.84;;;19.79;100.00
44765;BME280;30484;52.382;5.260;2023-03-23T12:40:21;100360.03;;;19.52;100.00
44765;BME280;30484;52.382;5.260;2023-03-23T12:42:57;100356.41;;;19.71;100.00
44765;BME280;30484;52.382;5.260;2023-03-23T12:45:45;100346.47;;;19.14;100.00
44765;BME280;30484;52.382;5.260;2023-03-23T12:48:38;100353.81;;;19.41;100.00
44765;BME280;30484;52.382;5.260;2023-03-23T12:51:22;100341.09;;;19.42;100.00
44765;BME280;30484;52.382;5.260;2023-03-23T12:54:03;100354.56;;;18.85;100.00
44765;BME280;30484;52.382;5.260;2023-03-23T12:56:43;100356.44;;;18.94;100.00
44765;BME280;30484;52.382;5.260;2023-03-23T12:59:21;100354.31;;;19.55;100.00
44765;BME280;30484;52.382;5.260;2023-03-23T13:01:55;100342.50;;;19.56;100.00
44765;BME280;30484;52.382;5.260;2023-03-23T13:04:35;100331.16;;;19.33;100.00
44765;BME280;30484;52.382;5.260;2023-03-23T13:07:08;100344.25;;;19.37;100.00
44765;BME280;30484;52.382;5.260;2023-03-23T13:09:50;100328.06;;;19.18;100.00
44765;BME280;30484;52.382;5.260;2023-03-23T13:12:31;100348.47;;;18.83;100.00
44765;BME280;30484;52.382;5.260;2023-03-23T13:15:22;100350.56;;;18.69;100.00
44765;BME280;30484;52.382;5.260;2023-03-23T13:18:12;100356.28;;;18.66;100.00